sensor_id;sensor_type;location;lat;lon;timestamp;pressure;altitude;pressure_sealevel;temperature;humidity
46722;BME280;32455;43.430;23.136;2024-02-21T00:00:16;98882.13;;;5.42;100.00
46722;BME280;32455;43.430;23.136;2024-02-21T00:03:01;98875.94;;;5.41;100.00
46722;BME280;32455;43.430;23.136;2024-02-21T00:05:49;98874.78;;;5.44;100.00
46722;BME280;32455;43.430;23.136;2024-02-21T00:08:34;98875.66;;;5.28;100.00
46722;BME280;32455;43.430;23.136;2024-02-21T00:11:19;98875.16;;;5.33;100.00
46722;BME280;32455;43.430;23.136;2024-02-21T00:14:04;98870.97;;;5.30;100.00
46722;BME280;32455;43.430;23.136;2024-02-21T00:16:50;98871.47;;;5.34;100.00
46722;BME280;32455;43.430;23.136;2024-02-21T00:19:35;98879.13;;;5.37;100.00
46722;BME280;32455;43.430;23.136;2024-02-21T00:22:21;98878.34;;;5.28;100.00
46722;BME280;32455;43.430;23.136;2024-02-21T00:25:06;98869.84;;;5.24;100.00
46722;BME280;32455;43.430;23.136;2024-02-21T00:27:52;98867.81;;;5.26;100.00
46722;BME280;32455;43.430;23.136;2024-02-21T00:30:38;98858.50;;;5.31;100.00
46722;BME280;32455;43.430;23.136;2024-02-21T00:33:24;98861.53;;;5.27;100.00
46722;BME280;32455;43.430;23.136;2024-02-21T00:36:09;98869.34;;;5.21;100.00
46722;BME280;32455;43.430;23.136;2024-02-21T00:38:54;98859.22;;;5.16;100.00
46722;BME280;32455;43.430;23.136;2024-02-21T00:41:40;98858.19;;;5.25;100.00
46722;BME280;32455;43.430;23.136;2024-02-21T00:44:25;98858.38;;;5.16;100.00
46722;BME280;32455;43.430;23.136;2024-02-21T00:47:11;98849.06;;;5.12;100.00
46722;BME280;32455;43.430;23.136;2024-02-21T00:49:56;98849.56;;;5.15;100.00
46722;BME280;32455;43.430;23.136;2024-02-21T00:52:41;98844.44;;;5.06;100.00
46722;BME280;32455;43.430;23.136;2024-02-21T00:55:27;98840.59;;;5.00;100.00
46722;BME280;32455;43.430;23.136;2024-02-21T00:58:13;98838.63;;;4.94;100.00
46722;BME280;32455;43.430;23.136;2024-02-21T01:00:58;98836.41;;;5.14;100.00
46722;BME280;32455;43.430;23.136;2024-02-21T01:03:43;98838.72;;;5.17;100.00
46722;BME280;32455;43.430;23.136;2024-02-21T01:06:29;98836.59;;;5.12;100.00
46722;BME280;32455;43.430;23.136;2024-02-21T01:09:14;98833.56;;;5.23;100.00
46722;BME280;32455;43.430;23.136;2024-02-21T01:12:00;98835.16;;;5.41;100.00
46722;BME280;32455;43.430;23.136;2024-02-21T01:14:45;98838.69;;;5.25;100.00
46722;BME280;32455;43.430;23.136;2024-02-21T01:17:34;98828.91;;;5.09;100.00
46722;BME280;32455;43.430;23.136;2024-02-21T01:20:21;98834.38;;;5.24;100.00
46722;BME280;32455;43.430;23.136;2024-02-21T01:23:06;98834.94;;;5.11;100.00
46722;BME280;32455;43.430;23.136;2024-02-21T01:25:52;98833.84;;;4.81;100.00
46722;BME280;32455;43.430;23.136;2024-02-21T01:28:37;98830.00;;;4.84;100.00
46722;BME280;32455;43.430;23.136;2024-02-21T01:31:22;98825.00;;;4.89;100.00
46722;BME280;32455;43.430;23.136;2024-02-21T01:34:08;98816.13;;;5.05;100.00
46722;BME280;32455;43.430;23.136;2024-02-21T01:36:53;98811.13;;;5.10;100.00
46722;BME280;32455;43.430;23.136;2024-02-21T01:39:38;98817.28;;;5.10;100.00
46722;BME280;32455;43.430;23.136;2024-02-21T01:42:22;98813.81;;;5.01;100.00
46722;BME280;32455;43.430;23.136;2024-02-21T01:45:07;98799.31;;;5.04;100.00
46722;BME280;32455;43.430;23.136;2024-02-21T01:47:52;98809.47;;;5.00;100.00
46722;BME280;32455;43.430;23.136;2024-02-21T01:50:38;98807.31;;;5.04;100.00
46722;BME280;32455;43.430;23.136;2024-02-21T01:53:29;98807.47;;;5.02;100.00
46722;BME280;32455;43.430;23.136;2024-02-21T01:56:16;98810.47;;;5.08;100.00
46722;BME280;32455;43.430;23.136;2024-02-21T01:59:01;98805.44;;;5.13;100.00
46722;BME280;32455;43.430;23.136;2024-02-21T02:01:47;98803.75;;;5.20;100.00
46722;BME280;32455;43.430;23.136;2024-02-21T02:04:33;98802.09;;;5.19;100.00
46722;BME280;32455;43.430;23.136;2024-02-21T02:07:19;98805.97;;;5.08;100.00
46722;BME280;32455;43.430;23.136;2024-02-21T02:10:05;98804.31;;;5.07;100.00
46722;BME280;32455;43.430;23.136;2024-02-21T02:12:51;98802.81;;;4.96;100.00
46722;BME280;32455;43.430;23.136;2024-02-21T02:15:46;98797.69;;;4.95;100.00
46722;BME280;32455;43.430;23.136;2024-02-21T02:18:31;98793.69;;;4.91;100.00
46722;BME280;32455;43.430;23.136;2024-02-21T02:21:39;98789.16;;;5.08;100.00
46722;BME280;32455;43.430;23.136;2024-02-21T02:24:26;98792.97;;;5.05;100.00
46722;BME280;32455;43.430;23.136;2024-02-21T02:27:14;98792.88;;;4.90;100.00
46722;BME280;32455;43.430;23.136;2024-02-21T02:29:59;98794.31;;;5.01;100.00
46722;BME280;32455;43.430;23.136;2024-02-21T02:32:45;98790.59;;;4.71;100.00
46722;BME280;32455;43.430;23.136;2024-02-21T02:35:31;98788.41;;;4.74;100.00
46722;BME280;32455;43.430;23.136;2024-02-21T02:38:17;98789.09;;;4.68;100.00
46722;BME280;32455;43.430;23.136;2024-02-21T02:41:02;98788.56;;;4.81;100.00
46722;BME280;32455;43.430;23.136;2024-02-21T02:43:48;98796.03;;;4.94;100.00
46722;BME280;32455;43.430;23.136;2024-02-21T02:46:33;98792.75;;;5.23;100.00
46722;BME280;32455;43.430;23.136;2024-02-21T02:49:19;98789.59;;;5.27;100.00
46722;BME280;32455;43.430;23.136;2024-02-21T02:52:04;98789.34;;;4.98;100.00
46722;BME280;32455;43.430;23.136;2024-02-21T02:54:50;98792.22;;;4.88;100.00
46722;BME280;32455;43.430;23.136;2024-02-21T02:57:38;98787.53;;;4.90;100.00
46722;BME280;32455;43.430;23.136;2024-02-21T03:00:23;98785.63;;;5.15;100.00
46722;BME280;32455;43.430;23.136;2024-02-21T03:03:09;98790.75;;;4.77;100.00
46722;BME280;32455;43.430;23.136;2024-02-21T03:05:54;98793.81;;;4.42;100.00
46722;BME280;32455;43.430;23.136;2024-02-21T03:08:40;98798.09;;;4.59;100.00
46722;BME280;32455;43.430;23.136;2024-02-21T03:11:25;98805.94;;;4.44;100.00
46722;BME280;32455;43.430;23.136;2024-02-21T03:14:13;98791.28;;;4.65;100.00
46722;BME280;32455;43.430;23.136;2024-02-21T03:16:59;98803.06;;;4.62;100.00
46722;BME280;32455;43.430;23.136;2024-02-21T03:19:44;98807.44;;;4.55;100.00
46722;BME280;32455;43.430;23.136;2024-02-21T03:22:30;98804.63;;;4.16;100.00
46722;BME280;32455;43.430;23.136;2024-02-21T03:25:16;98805.78;;;4.21;100.00
46722;BME280;32455;43.430;23.136;2024-02-21T03:28:01;98810.25;;;4.53;100.00
46722;BME280;32455;43.430;23.136;2024-02-21T03:30:46;98804.09;;;4.53;100.00
46722;BME280;32455;43.430;23.136;2024-02-21T03:33:32;98809.00;;;4.97;100.00
46722;BME280;32455;43.430;23.136;2024-02-21T03:36:17;98802.31;;;5.01;100.00
46722;BME280;32455;43.430;23.136;2024-02-21T03:39:02;98802.47;;;5.08;100.00
46722;BME280;32455;43.430;23.136;2024-02-21T03:41:48;98808.03;;;5.29;100.00
46722;BME280;32455;43.430;23.136;2024-02-21T03:44:33;98802.69;;;5.37;100.00
46722;BME280;32455;43.430;23.136;2024-02-21T03:47:19;98804.31;;;5.46;100.00
46722;BME280;32455;43.430;23.136;2024-02-21T03:50:05;98809.78;;;5.53;100.00
46722;BME280;32455;43.430;23.136;2024-02-21T03:52:50;98809.59;;;5.55;100.00
46722;BME280;32455;43.430;23.136;2024-02-21T03:55:36;98802.69;;;5.68;100.00
46722;BME280;32455;43.430;23.136;2024-02-21T03:58:21;98807.84;;;5.70;100.00
46722;BME280;32455;43.430;23.136;2024-02-21T04:01:07;98814.41;;;5.59;100.00
46722;BME280;32455;43.430;23.136;2024-02-21T04:03:52;98798.66;;;5.72;100.00
46722;BME280;32455;43.430;23.136;2024-02-21T04:06:47;98806.66;;;5.72;100.00
46722;BME280;32455;43.430;23.136;2024-02-21T04:09:34;98798.22;;;5.61;100.00
46722;BME280;32455;43.430;23.136;2024-02-21T04:12:19;98801.88;;;5.28;100.00
46722;BME280;32455;43.430;23.136;2024-02-21T04:15:06;98804.31;;;5.46;100.00
46722;BME280;32455;43.430;23.136;2024-02-21T04:17:51;98799.28;;;5.51;100.00
46722;BME280;32455;43.430;23.136;2024-02-21T04:20:37;98795.81;;;5.43;100.00
46722;BME280;32455;43.430;23.136;2024-02-21T04:23:23;98804.06;;;5.56;100.00
46722;BME280;32455;43.430;23.136;2024-02-21T04:26:08;98802.38;;;5.63;100.00
46722;BME280;32455;43.430;23.136;2024-02-21T04:28:54;98798.16;;;5.69;100.00
46722;BME280;32455;43.430;23.136;2024-02-21T04:31:39;98801.41;;;5.56;100.00
46722;BME280;32455;43.430;23.136;2024-02-21T04:34:24;98793.91;;;5.60;100.00
46722;BME280;32455;43.430;23.136;2024-02-21T04:37:09;98805.63;;;5.73;100.00
46722;BME280;32455;43.430;23.136;2024-02-21T04:39:54;98804.69;;;5.66;100.00
46722;BME280;32455;43.430;23.136;2024-02-21T04:42:40;98807.06;;;5.61;100.00
46722;BME280;32455;43.430;23.136;2024-02-21T04:45:25;98802.69;;;5.68;100.00
46722;BME280;32455;43.430;23.136;2024-02-21T04:48:10;98796.22;;;5.63;100.00
46722;BME280;32455;43.430;23.136;2024-02-21T04:50:55;98806.69;;;5.64;100.00
46722;BME280;32455;43.430;23.136;2024-02-21T04:53:41;98804.44;;;5.53;100.00
46722;BME280;32455;43.430;23.136;2024-02-21T04:56:26;98806.28;;;5.52;100.00
46722;BME280;32455;43.430;23.136;2024-02-21T04:59:12;98813.66;;;5.42;100.00
46722;BME280;32455;43.430;23.136;2024-02-21T05:01:57;98808.16;;;5.44;100.00
46722;BME280;32455;43.430;23.136;2024-02-21T05:04:43;98807.00;;;5.38;100.00
46722;BME280;32455;43.430;23.136;2024-02-21T05:07:28;98807.69;;;5.40;100.00
46722;BME280;32455;43.430;23.136;2024-02-21T05:10:14;98815.47;;;5.42;100.00
46722;BME280;32455;43.430;23.136;2024-02-21T05:12:59;98814.78;;;5.48;100.00
46722;BME280;32455;43.430;23.136;2024-02-21T05:15:44;98815.09;;;5.53;100.00
46722;BME280;32455;43.430;23.136;2024-02-21T05:18:29;98815.78;;;5.47;100.00
46722;BME280;32455;43.430;23.136;2024-02-21T05:21:15;98818.16;;;5.42;100.00
46722;BME280;32455;43.430;23.136;2024-02-21T05:24:00;98809.13;;;5.43;100.00
46722;BME280;32455;43.430;23.136;2024-02-21T05:26:45;98815.19;;;5.37;100.00
46722;BME280;32455;43.430;23.136;2024-02-21T05:29:31;98814.47;;;5.43;100.00
46722;BME280;32455;43.430;23.136;2024-02-21T05:32:16;98824.09;;;5.52;100.00
46722;BME280;32455;43.430;23.136;2024-02-21T05:35:01;98829.78;;;5.49;100.00
46722;BME280;32455;43.430;23.136;2024-02-21T05:37:46;98829.50;;;5.36;100.00
46722;BME280;32455;43.430;23.136;2024-02-21T05:40:32;98828.31;;;5.38;100.00
46722;BME280;32455;43.430;23.136;2024-02-21T05:43:18;98831.81;;;5.39;100.00
46722;BME280;32455;43.430;23.136;2024-02-21T05:46:03;98834.56;;;5.62;100.00
46722;BME280;32455;43.430;23.136;2024-02-21T05:48:48;98830.75;;;5.48;100.00
46722;BME280;32455;43.430;23.136;2024-02-21T05:51:34;98843.19;;;5.24;100.00
46722;BME280;32455;43.430;23.136;2024-02-21T05:54:20;98841.25;;;5.18;100.00
46722;BME280;32455;43.430;23.136;2024-02-21T05:57:07;98842.91;;;5.11;100.00
46722;BME280;32455;43.430;23.136;2024-02-21T05:59:52;98843.41;;;5.54;100.00
46722;BME280;32455;43.430;23.136;2024-02-21T06:02:38;98851.97;;;5.72;100.00
46722;BME280;32455;43.430;23.136;2024-02-21T06:05:23;98850.28;;;5.80;100.00
46722;BME280;32455;43.430;23.136;2024-02-21T06:08:08;98861.25;;;5.93;100.00
46722;BME280;32455;43.430;23.136;2024-02-21T06:10:53;98857.03;;;5.98;100.00
46722;BME280;32455;43.430;23.136;2024-02-21T06:13:39;98852.38;;;6.00;100.00
46722;BME280;32455;43.430;23.136;2024-02-21T06:16:25;98848.50;;;6.03;100.00
46722;BME280;32455;43.430;23.136;2024-02-21T06:19:10;98858.69;;;5.99;100.00
46722;BME280;32455;43.430;23.136;2024-02-21T06:21:56;98865.28;;;6.12;100.00
46722;BME280;32455;43.430;23.136;2024-02-21T06:24:41;98857.88;;;6.22;100.00
46722;BME280;32455;43.430;23.136;2024-02-21T06:27:27;98864.44;;;6.57;100.00
46722;BME280;32455;43.430;23.136;2024-02-21T06:30:13;98866.50;;;6.70;100.00
46722;BME280;32455;43.430;23.136;2024-02-21T06:32:58;98861.25;;;6.76;100.00
46722;BME280;32455;43.430;23.136;2024-02-21T06:35:44;98867.19;;;6.87;100.00
46722;BME280;32455;43.430;23.136;2024-02-21T06:38:31;98862.22;;;6.98;100.00
46722;BME280;32455;43.430;23.136;2024-02-21T06:41:19;98865.94;;;7.12;100.00
46722;BME280;32455;43.430;23.136;2024-02-21T06:44:04;98863.78;;;7.22;100.00
46722;BME280;32455;43.430;23.136;2024-02-21T06:46:49;98861.41;;;7.27;100.00
46722;BME280;32455;43.430;23.136;2024-02-21T06:49:34;98867.22;;;7.46;100.00
46722;BME280;32455;43.430;23.136;2024-02-21T06:52:21;98871.72;;;7.60;100.00
46722;BME280;32455;43.430;23.136;2024-02-21T06:55:08;98862.03;;;7.59;100.00
46722;BME280;32455;43.430;23.136;2024-02-21T06:57:53;98862.56;;;7.69;100.00
46722;BME280;32455;43.430;23.136;2024-02-21T07:00:39;98862.91;;;7.81;100.00
46722;BME280;32455;43.430;23.136;2024-02-21T07:03:25;98862.63;;;7.91;100.00
46722;BME280;32455;43.430;23.136;2024-02-21T07:06:11;98863.44;;;7.91;100.00
46722;BME280;32455;43.430;23.136;2024-02-21T07:08:56;98859.94;;;7.91;100.00
46722;BME280;32455;43.430;23.136;2024-02-21T07:11:41;98859.38;;;7.95;100.00
46722;BME280;32455;43.430;23.136;2024-02-21T07:14:29;98862.06;;;8.17;100.00
46722;BME280;32455;43.430;23.136;2024-02-21T07:17:14;98857.13;;;8.35;100.00
46722;BME280;32455;43.430;23.136;2024-02-21T07:19:59;98853.78;;;8.33;100.00
46722;BME280;32455;43.430;23.136;2024-02-21T07:22:46;98851.94;;;8.48;100.00
46722;BME280;32455;43.430;23.136;2024-02-21T07:25:30;98851.78;;;8.57;100.00
46722;BME280;32455;43.430;23.136;2024-02-21T07:28:16;98862.50;;;8.85;100.00
46722;BME280;32455;43.430;23.136;2024-02-21T07:31:02;98853.56;;;8.71;100.00
46722;BME280;32455;43.430;23.136;2024-02-21T07:33:47;98851.78;;;8.85;100.00
46722;BME280;32455;43.430;23.136;2024-02-21T07:36:33;98848.34;;;8.91;100.00
46722;BME280;32455;43.430;23.136;2024-02-21T07:39:19;98857.53;;;9.10;100.00
46722;BME280;32455;43.430;23.136;2024-02-21T07:42:05;98866.47;;;9.17;99.55
46722;BME280;32455;43.430;23.136;2024-02-21T07:44:50;98862.09;;;9.44;99.18
46722;BME280;32455;43.430;23.136;2024-02-21T07:47:36;98851.50;;;9.36;99.09
46722;BME280;32455;43.430;23.136;2024-02-21T07:50:22;98854.31;;;9.56;97.63
46722;BME280;32455;43.430;23.136;2024-02-21T07:53:07;98854.91;;;9.51;97.55
46722;BME280;32455;43.430;23.136;2024-02-21T07:55:53;98851.84;;;9.61;95.04
46722;BME280;32455;43.430;23.136;2024-02-21T07:58:38;98854.59;;;9.81;95.35
46722;BME280;32455;43.430;23.136;2024-02-21T08:01:24;98844.88;;;9.79;97.52
46722;BME280;32455;43.430;23.136;2024-02-21T08:04:09;98851.13;;;9.87;93.16
46722;BME280;32455;43.430;23.136;2024-02-21T08:06:54;98849.97;;;10.16;94.02
46722;BME280;32455;43.430;23.136;2024-02-21T08:09:40;98852.13;;;10.47;92.76
46722;BME280;32455;43.430;23.136;2024-02-21T08:12:25;98858.09;;;10.29;89.84
46722;BME280;32455;43.430;23.136;2024-02-21T08:15:12;98857.09;;;10.50;90.53
46722;BME280;32455;43.430;23.136;2024-02-21T08:17:57;98849.63;;;10.39;90.85
46722;BME280;32455;43.430;23.136;2024-02-21T08:20:46;98852.47;;;10.24;91.49
46722;BME280;32455;43.430;23.136;2024-02-21T08:23:32;98852.94;;;10.47;90.91
46722;BME280;32455;43.430;23.136;2024-02-21T08:26:17;98845.72;;;10.55;88.77
46722;BME280;32455;43.430;23.136;2024-02-21T08:29:03;98852.66;;;10.22;92.64
46722;BME280;32455;43.430;23.136;2024-02-21T08:31:48;98859.72;;;10.30;88.29
46722;BME280;32455;43.430;23.136;2024-02-21T08:34:34;98860.56;;;10.31;89.07
46722;BME280;32455;43.430;23.136;2024-02-21T08:37:19;98858.94;;;10.43;88.35
46722;BME280;32455;43.430;23.136;2024-02-21T08:40:05;98859.53;;;10.38;89.03
46722;BME280;32455;43.430;23.136;2024-02-21T08:42:53;98852.94;;;10.47;90.64
46722;BME280;32455;43.430;23.136;2024-02-21T08:45:38;98858.13;;;10.75;87.32
46722;BME280;32455;43.430;23.136;2024-02-21T08:48:24;98865.34;;;10.68;86.27
46722;BME280;32455;43.430;23.136;2024-02-21T08:51:10;98865.09;;;11.29;88.74
46722;BME280;32455;43.430;23.136;2024-02-21T08:53:56;98857.47;;;11.13;89.12
46722;BME280;32455;43.430;23.136;2024-02-21T08:56:43;98847.69;;;11.39;85.91
46722;BME280;32455;43.430;23.136;2024-02-21T08:59:28;98867.78;;;11.29;81.43
46722;BME280;32455;43.430;23.136;2024-02-21T09:02:14;98862.84;;;11.26;82.77
46722;BME280;32455;43.430;23.136;2024-02-21T09:05:01;98861.38;;;11.31;84.54
46722;BME280;32455;43.430;23.136;2024-02-21T09:07:45;98862.03;;;10.99;82.48
46722;BME280;32455;43.430;23.136;2024-02-21T09:10:30;98873.81;;;10.92;82.49
46722;BME280;32455;43.430;23.136;2024-02-21T09:13:16;98868.03;;;10.95;82.92
46722;BME280;32455;43.430;23.136;2024-02-21T09:16:02;98870.31;;;10.98;84.13
46722;BME280;32455;43.430;23.136;2024-02-21T09:18:48;98872.81;;;10.80;84.34
46722;BME280;32455;43.430;23.136;2024-02-21T09:21:33;98875.91;;;10.70;85.18
46722;BME280;32455;43.430;23.136;2024-02-21T09:24:19;98875.50;;;10.66;86.02
46722;BME280;32455;43.430;23.136;2024-02-21T09:27:04;98874.66;;;10.59;84.92
46722;BME280;32455;43.430;23.136;2024-02-21T09:29:51;98873.00;;;10.65;85.49
46722;BME280;32455;43.430;23.136;2024-02-21T09:32:36;98866.16;;;10.49;85.45
46722;BME280;32455;43.430;23.136;2024-02-21T09:35:22;98865.56;;;10.60;87.35
46722;BME280;32455;43.430;23.136;2024-02-21T09:38:08;98866.78;;;10.58;88.49
46722;BME280;32455;43.430;23.136;2024-02-21T09:41:25;98873.22;;;10.63;90.50
46722;BME280;32455;43.430;23.136;2024-02-21T09:44:10;98863.31;;;10.84;88.21
46722;BME280;32455;43.430;23.136;2024-02-21T09:47:09;98869.72;;;10.63;87.85
46722;BME280;32455;43.430;23.136;2024-02-21T09:49:56;98864.53;;;10.74;89.28
46722;BME280;32455;43.430;23.136;2024-02-21T09:52:43;98871.16;;;10.72;88.36
46722;BME280;32455;43.430;23.136;2024-02-21T09:55:31;98861.22;;;10.79;88.28
46722;BME280;32455;43.430;23.136;2024-02-21T09:58:19;98868.25;;;10.67;88.35
46722;BME280;32455;43.430;23.136;2024-02-21T10:01:05;98868.03;;;10.68;87.70
46722;BME280;32455;43.430;23.136;2024-02-21T10:03:51;98863.47;;;11.15;87.62
46722;BME280;32455;43.430;23.136;2024-02-21T10:06:36;98864.28;;;11.36;85.39
46722;BME280;32455;43.430;23.136;2024-02-21T10:09:28;98857.44;;;11.40;82.09
46722;BME280;32455;43.430;23.136;2024-02-21T10:12:13;98846.75;;;11.65;82.91
46722;BME280;32455;43.430;23.136;2024-02-21T10:15:02;98868.03;;;10.95;86.04
46722;BME280;32455;43.430;23.136;2024-02-21T10:17:47;98853.78;;;10.88;89.34
46722;BME280;32455;43.430;23.136;2024-02-21T10:20:33;98862.25;;;10.65;90.19
46722;BME280;32455;43.430;23.136;2024-02-21T10:23:18;98849.84;;;10.77;91.28
46722;BME280;32455;43.430;23.136;2024-02-21T10:26:07;98849.00;;;10.57;90.83
46722;BME280;32455;43.430;23.136;2024-02-21T10:28:53;98847.78;;;10.52;91.41
46722;BME280;32455;43.430;23.136;2024-02-21T10:31:39;98845.09;;;10.46;89.26
46722;BME280;32455;43.430;23.136;2024-02-21T10:34:25;98836.00;;;10.73;90.79
46722;BME280;32455;43.430;23.136;2024-02-21T10:37:11;98834.53;;;10.77;88.88
46722;BME280;32455;43.430;23.136;2024-02-21T10:39:57;98829.38;;;10.76;87.89
46722;BME280;32455;43.430;23.136;2024-02-21T10:42:43;98826.28;;;10.92;88.86
46722;BME280;32455;43.430;23.136;2024-02-21T10:45:36;98836.63;;;10.89;86.25
46722;BME280;32455;43.430;23.136;2024-02-21T10:48:36;98819.44;;;10.83;86.54
46722;BME280;32455;43.430;23.136;2024-02-21T10:51:30;98813.25;;;10.89;86.59
46722;BME280;32455;43.430;23.136;2024-02-21T10:54:43;98806.94;;;11.28;86.41
46722;BME280;32455;43.430;23.136;2024-02-21T10:57:31;98816.25;;;11.39;81.23
46722;BME280;32455;43.430;23.136;2024-02-21T11:00:17;98816.25;;;11.33;81.92
46722;BME280;32455;43.430;23.136;2024-02-21T11:03:03;98811.91;;;11.32;84.62
46722;BME280;32455;43.430;23.136;2024-02-21T11:05:49;98811.97;;;10.98;82.80
46722;BME280;32455;43.430;23.136;2024-02-21T11:08:36;98810.97;;;10.86;83.67
46722;BME280;32455;43.430;23.136;2024-02-21T11:11:23;98810.75;;;10.81;81.97
46722;BME280;32455;43.430;23.136;2024-02-21T11:14:17;98809.13;;;10.80;82.63
46722;BME280;32455;43.430;23.136;2024-02-21T11:17:15;98820.72;;;10.67;80.95
46722;BME280;32455;43.430;23.136;2024-02-21T11:20:14;98803.31;;;10.83;82.54
46722;BME280;32455;43.430;23.136;2024-02-21T11:23:00;98795.25;;;10.83;81.54
46722;BME280;32455;43.430;23.136;2024-02-21T11:25:46;98794.81;;;11.06;80.15
46722;BME280;32455;43.430;23.136;2024-02-21T11:28:32;98794.63;;;10.94;78.89
46722;BME280;32455;43.430;23.136;2024-02-21T11:31:17;98793.13;;;11.12;79.67
46722;BME280;32455;43.430;23.136;2024-02-21T11:34:03;98793.09;;;11.25;78.54
46722;BME280;32455;43.430;23.136;2024-02-21T11:36:50;98786.91;;;11.18;78.01
46722;BME280;32455;43.430;23.136;2024-02-21T11:39:35;98785.91;;;11.06;76.67
46722;BME280;32455;43.430;23.136;2024-02-21T11:42:21;98791.84;;;11.21;78.09
46722;BME280;32455;43.430;23.136;2024-02-21T11:45:07;98788.38;;;11.14;80.49
46722;BME280;32455;43.430;23.136;2024-02-21T11:47:54;98781.59;;;10.85;81.24
46722;BME280;32455;43.430;23.136;2024-02-21T11:50:39;98786.38;;;10.76;78.80
46722;BME280;32455;43.430;23.136;2024-02-21T11:53:24;98785.13;;;10.85;80.13
46722;BME280;32455;43.430;23.136;2024-02-21T11:56:12;98771.78;;;11.17;78.44
46722;BME280;32455;43.430;23.136;2024-02-21T11:58:59;98771.44;;;11.07;77.67
46722;BME280;32455;43.430;23.136;2024-02-21T12:01:44;98761.22;;;11.22;77.82
46722;BME280;32455;43.430;23.136;2024-02-21T12:04:29;98760.03;;;11.04;78.81
46722;BME280;32455;43.430;23.136;2024-02-21T12:07:18;98757.78;;;10.95;78.15
46722;BME280;32455;43.430;23.136;2024-02-21T12:10:08;98763.81;;;10.90;77.36
46722;BME280;32455;43.430;23.136;2024-02-21T12:13:08;98753.84;;;11.04;76.03
46722;BME280;32455;43.430;23.136;2024-02-21T12:15:54;98753.69;;;10.92;75.42
46722;BME280;32455;43.430;23.136;2024-02-21T12:18:40;98749.13;;;10.93;76.26
46722;BME280;32455;43.430;23.136;2024-02-21T12:21:32;98745.00;;;10.84;76.46
46722;BME280;32455;43.430;23.136;2024-02-21T12:24:25;98751.72;;;11.19;77.48
46722;BME280;32455;43.430;23.136;2024-02-21T12:27:10;98748.50;;;10.97;74.07
46722;BME280;32455;43.430;23.136;2024-02-21T12:29:55;98743.25;;;11.16;73.88
46722;BME280;32455;43.430;23.136;2024-02-21T12:32:41;98744.88;;;11.23;73.53
46722;BME280;32455;43.430;23.136;2024-02-21T12:35:26;98739.69;;;11.35;73.21
46722;BME280;32455;43.430;23.136;2024-02-21T12:38:11;98739.47;;;11.30;74.05
46722;BME280;32455;43.430;23.136;2024-02-21T12:40:58;98742.97;;;11.37;76.94
46722;BME280;32455;43.430;23.136;2024-02-21T12:43:44;98736.34;;;11.33;75.03
46722;BME280;32455;43.430;23.136;2024-02-21T12:46:29;98736.59;;;11.25;72.76
46722;BME280;32455;43.430;23.136;2024-02-21T12:49:14;98738.53;;;11.04;73.17
46722;BME280;32455;43.430;23.136;2024-02-21T12:52:01;98737.25;;;11.20;73.81
46722;BME280;32455;43.430;23.136;2024-02-21T12:54:46;98751.50;;;11.21;74.16
46722;BME280;32455;43.430;23.136;2024-02-21T12:57:32;98748.63;;;11.16;72.15
46722;BME280;32455;43.430;23.136;2024-02-21T13:00:18;98743.94;;;10.98;70.65
46722;BME280;32455;43.430;23.136;2024-02-21T13:03:04;98740.25;;;10.92;73.20
46722;BME280;32455;43.430;23.136;2024-02-21T13:05:50;98743.53;;;10.94;72.19
46722;BME280;32455;43.430;23.136;2024-02-21T13:08:35;98739.97;;;11.00;72.44
46722;BME280;32455;43.430;23.136;2024-02-21T13:11:20;98723.44;;;11.03;72.22
46722;BME280;32455;43.430;23.136;2024-02-21T13:14:06;98737.47;;;11.12;70.53
46722;BME280;32455;43.430;23.136;2024-02-21T13:16:51;98735.25;;;10.96;69.39
46722;BME280;32455;43.430;23.136;2024-02-21T13:19:37;98732.25;;;11.24;70.74
46722;BME280;32455;43.430;23.136;2024-02-21T13:22:22;98737.81;;;11.29;71.84
46722;BME280;32455;43.430;23.136;2024-02-21T13:25:10;98733.59;;;11.01;71.65
46722;BME280;32455;43.430;23.136;2024-02-21T13:27:59;98723.19;;;11.12;72.28
46722;BME280;32455;43.430;23.136;2024-02-21T13:30:44;98717.00;;;11.04;71.62
46722;BME280;32455;43.430;23.136;2024-02-21T13:33:30;98722.38;;;11.11;73.61
46722;BME280;32455;43.430;23.136;2024-02-21T13:36:15;98718.72;;;10.79;73.86
46722;BME280;32455;43.430;23.136;2024-02-21T13:39:01;98721.41;;;10.86;74.19
46722;BME280;32455;43.430;23.136;2024-02-21T13:41:46;98719.28;;;11.08;76.33
46722;BME280;32455;43.430;23.136;2024-02-21T13:44:34;98723.06;;;10.87;77.11
46722;BME280;32455;43.430;23.136;2024-02-21T13:47:21;98725.34;;;10.83;78.60
46722;BME280;32455;43.430;23.136;2024-02-21T13:50:07;98731.75;;;10.82;78.90
46722;BME280;32455;43.430;23.136;2024-02-21T13:52:56;98724.38;;;10.71;79.80
46722;BME280;32455;43.430;23.136;2024-02-21T13:55:41;98711.34;;;10.48;81.46
46722;BME280;32455;43.430;23.136;2024-02-21T13:58:28;98729.16;;;10.42;80.98
46722;BME280;32455;43.430;23.136;2024-02-21T14:01:14;98734.31;;;10.44;82.97
46722;BME280;32455;43.430;23.136;2024-02-21T14:03:59;98747.09;;;10.09;86.34
46722;BME280;32455;43.430;23.136;2024-02-21T14:06:45;98750.03;;;9.46;92.65
46722;BME280;32455;43.430;23.136;2024-02-21T14:09:30;98750.03;;;9.46;94.26
46722;BME280;32455;43.430;23.136;2024-02-21T14:12:17;98749.38;;;8.89;98.59
46722;BME280;32455;43.430;23.136;2024-02-21T14:15:06;98752.66;;;8.85;99.81
46722;BME280;32455;43.430;23.136;2024-02-21T14:17:51;98749.09;;;8.77;99.43
46722;BME280;32455;43.430;23.136;2024-02-21T14:20:37;98751.44;;;8.94;98.31
46722;BME280;32455;43.430;23.136;2024-02-21T14:23:22;98743.53;;;8.79;98.08
46722;BME280;32455;43.430;23.136;2024-02-21T14:26:07;98758.69;;;8.16;100.00
46722;BME280;32455;43.430;23.136;2024-02-21T14:28:52;98748.00;;;8.16;100.00